sensor_id;sensor_type;location;lat;lon;timestamp;P1;durP1;ratioP1;P2;durP2;ratioP2
45318;SDS011;31057;48.498;32.260;2023-05-10T00:01:00;7.22;;;4.47;;
45318;SDS011;31057;48.498;32.260;2023-05-10T00:03:02;11.70;;;4.78;;
45318;SDS011;31057;48.498;32.260;2023-05-10T00:05:06;9.93;;;4.55;;
45318;SDS011;31057;48.498;32.260;2023-05-10T00:07:08;9.82;;;4.90;;
45318;SDS011;31057;48.498;32.260;2023-05-10T00:09:11;9.18;;;5.25;;
45318;SDS011;31057;48.498;32.260;2023-05-10T00:11:13;10.15;;;5.13;;
45318;SDS011;31057;48.498;32.260;2023-05-10T00:13:15;11.25;;;5.53;;
45318;SDS011;31057;48.498;32.260;2023-05-10T00:17:19;11.10;;;5.03;;
45318;SDS011;31057;48.498;32.260;2023-05-10T00:19:21;8.40;;;4.55;;
45318;SDS011;31057;48.498;32.260;2023-05-10T00:21:23;13.82;;;4.90;;
45318;SDS011;31057;48.498;32.260;2023-05-10T00:23:25;10.80;;;4.90;;
45318;SDS011;31057;48.498;32.260;2023-05-10T00:25:27;7.50;;;5.45;;
45318;SDS011;31057;48.498;32.260;2023-05-10T00:27:29;6.38;;;4.18;;
45318;SDS011;31057;48.498;32.260;2023-05-10T00:29:30;7.63;;;4.30;;
45318;SDS011;31057;48.498;32.260;2023-05-10T00:33:34;6.97;;;4.85;;
45318;SDS011;31057;48.498;32.260;2023-05-10T00:35:36;6.65;;;4.80;;
45318;SDS011;31057;48.498;32.260;2023-05-10T00:37:39;7.28;;;4.60;;
45318;SDS011;31057;48.498;32.260;2023-05-10T00:39:41;7.68;;;4.45;;
45318;SDS011;31057;48.498;32.260;2023-05-10T00:41:43;6.20;;;4.30;;
45318;SDS011;31057;48.498;32.260;2023-05-10T00:45:47;7.20;;;4.57;;
45318;SDS011;31057;48.498;32.260;2023-05-10T00:49:53;8.27;;;4.85;;
45318;SDS011;31057;48.498;32.260;2023-05-10T00:51:55;9.32;;;4.28;;
45318;SDS011;31057;48.498;32.260;2023-05-10T00:53:57;6.32;;;4.70;;
45318;SDS011;31057;48.498;32.260;2023-05-10T00:56:00;10.90;;;5.20;;
45318;SDS011;31057;48.498;32.260;2023-05-10T00:58:04;6.40;;;3.92;;
45318;SDS011;31057;48.498;32.260;2023-05-10T01:00:06;8.55;;;4.00;;
45318;SDS011;31057;48.498;32.260;2023-05-10T01:02:09;9.65;;;4.75;;
45318;SDS011;31057;48.498;32.260;2023-05-10T01:04:11;8.60;;;4.88;;
45318;SDS011;31057;48.498;32.260;2023-05-10T01:06:14;6.75;;;3.80;;
45318;SDS011;31057;48.498;32.260;2023-05-10T01:08:16;11.60;;;4.50;;
45318;SDS011;31057;48.498;32.260;2023-05-10T01:10:19;5.97;;;4.35;;
45318;SDS011;31057;48.498;32.260;2023-05-10T01:12:21;6.30;;;4.10;;
45318;SDS011;31057;48.498;32.260;2023-05-10T01:14:23;6.90;;;4.10;;
45318;SDS011;31057;48.498;32.260;2023-05-10T01:16:26;9.93;;;4.80;;
45318;SDS011;31057;48.498;32.260;2023-05-10T01:18:30;10.98;;;4.28;;
45318;SDS011;31057;48.498;32.260;2023-05-10T01:20:35;5.85;;;4.07;;
45318;SDS011;31057;48.498;32.260;2023-05-10T01:32:24;6.78;;;4.35;;
45318;SDS011;31057;48.498;32.260;2023-05-10T01:37:11;6.82;;;3.95;;
45318;SDS011;31057;48.498;32.260;2023-05-10T01:41:52;8.13;;;4.40;;
45318;SDS011;31057;48.498;32.260;2023-05-10T01:46:34;10.35;;;4.53;;
45318;SDS011;31057;48.498;32.260;2023-05-10T01:48:42;7.38;;;4.53;;
45318;SDS011;31057;48.498;32.260;2023-05-10T01:50:49;9.02;;;4.88;;
45318;SDS011;31057;48.498;32.260;2023-05-10T01:52:53;6.18;;;4.25;;
45318;SDS011;31057;48.498;32.260;2023-05-10T01:55:08;8.55;;;4.35;;
45318;SDS011;31057;48.498;32.260;2023-05-10T01:57:12;13.80;;;5.05;;
45318;SDS011;31057;48.498;32.260;2023-05-10T01:59:17;7.97;;;5.05;;
45318;SDS011;31057;48.498;32.260;2023-05-10T02:01:20;8.15;;;5.30;;
45318;SDS011;31057;48.498;32.260;2023-05-10T02:03:24;6.78;;;4.28;;
45318;SDS011;31057;48.498;32.260;2023-05-10T02:05:27;11.75;;;4.78;;
45318;SDS011;31057;48.498;32.260;2023-05-10T02:07:31;7.03;;;4.35;;
45318;SDS011;31057;48.498;32.260;2023-05-10T02:09:35;7.97;;;4.88;;
45318;SDS011;31057;48.498;32.260;2023-05-10T02:11:39;8.30;;;4.97;;
45318;SDS011;31057;48.498;32.260;2023-05-10T02:13:44;8.20;;;4.45;;
45318;SDS011;31057;48.498;32.260;2023-05-10T02:15:48;9.90;;;4.63;;
45318;SDS011;31057;48.498;32.260;2023-05-10T02:17:52;11.88;;;4.85;;
45318;SDS011;31057;48.498;32.260;2023-05-10T02:19:56;8.52;;;5.15;;
45318;SDS011;31057;48.498;32.260;2023-05-10T02:22:00;8.13;;;5.40;;
45318;SDS011;31057;48.498;32.260;2023-05-10T02:24:04;8.40;;;5.20;;
45318;SDS011;31057;48.498;32.260;2023-05-10T02:26:07;13.45;;;4.75;;
45318;SDS011;31057;48.498;32.260;2023-05-10T02:28:10;6.10;;;4.55;;
45318;SDS011;31057;48.498;32.260;2023-05-10T02:30:14;6.00;;;4.28;;
45318;SDS011;31057;48.498;32.260;2023-05-10T02:32:18;6.68;;;4.55;;
45318;SDS011;31057;48.498;32.260;2023-05-10T02:34:25;6.50;;;4.50;;
45318;SDS011;31057;48.498;32.260;2023-05-10T02:36:28;9.52;;;4.88;;
45318;SDS011;31057;48.498;32.260;2023-05-10T02:38:31;9.07;;;4.72;;
45318;SDS011;31057;48.498;32.260;2023-05-10T02:40:34;7.68;;;4.50;;
45318;SDS011;31057;48.498;32.260;2023-05-10T02:42:38;7.90;;;4.75;;
45318;SDS011;31057;48.498;32.260;2023-05-10T02:44:45;8.77;;;5.20;;
45318;SDS011;31057;48.498;32.260;2023-05-10T02:46:48;10.85;;;5.80;;
45318;SDS011;31057;48.498;32.260;2023-05-10T02:48:51;9.55;;;5.97;;
45318;SDS011;31057;48.498;32.260;2023-05-10T02:50:53;11.32;;;5.63;;
45318;SDS011;31057;48.498;32.260;2023-05-10T02:52:59;11.50;;;6.15;;
45318;SDS011;31057;48.498;32.260;2023-05-10T02:55:04;9.95;;;5.75;;
45318;SDS011;31057;48.498;32.260;2023-05-10T02:57:07;8.07;;;5.32;;
45318;SDS011;31057;48.498;32.260;2023-05-10T02:59:12;14.00;;;6.90;;
45318;SDS011;31057;48.498;32.260;2023-05-10T03:01:14;12.75;;;5.70;;
45318;SDS011;31057;48.498;32.260;2023-05-10T03:03:16;8.25;;;5.38;;
45318;SDS011;31057;48.498;32.260;2023-05-10T03:05:18;9.68;;;5.90;;
45318;SDS011;31057;48.498;32.260;2023-05-10T03:07:21;12.27;;;5.68;;
45318;SDS011;31057;48.498;32.260;2023-05-10T03:09:23;8.40;;;4.95;;
45318;SDS011;31057;48.498;32.260;2023-05-10T03:13:55;10.05;;;5.55;;
45318;SDS011;31057;48.498;32.260;2023-05-10T03:16:10;11.05;;;5.82;;
45318;SDS011;31057;48.498;32.260;2023-05-10T03:18:22;7.95;;;5.70;;
45318;SDS011;31057;48.498;32.260;2023-05-10T03:20:35;13.27;;;5.47;;
45318;SDS011;31057;48.498;32.260;2023-05-10T03:25:11;11.20;;;6.07;;
45318;SDS011;31057;48.498;32.260;2023-05-10T03:27:16;6.60;;;5.32;;
45318;SDS011;31057;48.498;32.260;2023-05-10T03:29:19;11.43;;;5.85;;
45318;SDS011;31057;48.498;32.260;2023-05-10T03:31:22;9.30;;;5.60;;
45318;SDS011;31057;48.498;32.260;2023-05-10T03:35:26;11.68;;;6.60;;
45318;SDS011;31057;48.498;32.260;2023-05-10T03:37:28;9.30;;;5.88;;
45318;SDS011;31057;48.498;32.260;2023-05-10T03:39:30;11.30;;;6.10;;
45318;SDS011;31057;48.498;32.260;2023-05-10T03:41:32;10.82;;;5.95;;
45318;SDS011;31057;48.498;32.260;2023-05-10T03:43:34;8.80;;;5.65;;
45318;SDS011;31057;48.498;32.260;2023-05-10T03:45:36;7.82;;;5.50;;
45318;SDS011;31057;48.498;32.260;2023-05-10T03:47:38;12.07;;;6.10;;
45318;SDS011;31057;48.498;32.260;2023-05-10T03:49:40;11.70;;;5.38;;
45318;SDS011;31057;48.498;32.260;2023-05-10T03:51:42;10.30;;;6.43;;
45318;SDS011;31057;48.498;32.260;2023-05-10T03:53:44;20.13;;;6.50;;
45318;SDS011;31057;48.498;32.260;2023-05-10T03:55:46;11.55;;;5.82;;
45318;SDS011;31057;48.498;32.260;2023-05-10T03:57:48;8.05;;;5.93;;
45318;SDS011;31057;48.498;32.260;2023-05-10T03:59:50;15.65;;;5.57;;
45318;SDS011;31057;48.498;32.260;2023-05-10T04:01:52;15.55;;;6.40;;
45318;SDS011;31057;48.498;32.260;2023-05-10T04:03:54;14.30;;;7.10;;
45318;SDS011;31057;48.498;32.260;2023-05-10T04:08:02;15.07;;;6.40;;
45318;SDS011;31057;48.498;32.260;2023-05-10T04:10:05;19.48;;;8.25;;
45318;SDS011;31057;48.498;32.260;2023-05-10T04:12:07;9.52;;;6.53;;
45318;SDS011;31057;48.498;32.260;2023-05-10T04:14:11;13.27;;;7.32;;
45318;SDS011;31057;48.498;32.260;2023-05-10T04:16:13;10.13;;;6.72;;
45318;SDS011;31057;48.498;32.260;2023-05-10T04:18:15;13.13;;;6.60;;
45318;SDS011;31057;48.498;32.260;2023-05-10T04:20:18;10.27;;;6.47;;
45318;SDS011;31057;48.498;32.260;2023-05-10T04:22:20;14.63;;;6.80;;
45318;SDS011;31057;48.498;32.260;2023-05-10T04:24:22;10.18;;;7.03;;
45318;SDS011;31057;48.498;32.260;2023-05-10T04:26:24;11.98;;;6.22;;
45318;SDS011;31057;48.498;32.260;2023-05-10T04:28:26;10.75;;;5.90;;
45318;SDS011;31057;48.498;32.260;2023-05-10T04:30:28;10.43;;;5.95;;
45318;SDS011;31057;48.498;32.260;2023-05-10T04:34:32;16.77;;;5.75;;
45318;SDS011;31057;48.498;32.260;2023-05-10T04:36:35;8.13;;;4.85;;
45318;SDS011;31057;48.498;32.260;2023-05-10T04:38:37;13.35;;;6.20;;
45318;SDS011;31057;48.498;32.260;2023-05-10T04:40:39;10.10;;;5.80;;
45318;SDS011;31057;48.498;32.260;2023-05-10T04:42:41;10.20;;;5.53;;
45318;SDS011;31057;48.498;32.260;2023-05-10T04:44:44;7.78;;;5.78;;
45318;SDS011;31057;48.498;32.260;2023-05-10T04:46:46;10.02;;;5.30;;
45318;SDS011;31057;48.498;32.260;2023-05-10T04:50:50;12.23;;;5.80;;
45318;SDS011;31057;48.498;32.260;2023-05-10T04:54:57;29.27;;;6.65;;
45318;SDS011;31057;48.498;32.260;2023-05-10T04:56:59;15.80;;;6.50;;
45318;SDS011;31057;48.498;32.260;2023-05-10T04:59:01;12.43;;;5.70;;
45318;SDS011;31057;48.498;32.260;2023-05-10T05:01:04;10.63;;;5.88;;
45318;SDS011;31057;48.498;32.260;2023-05-10T05:03:11;8.57;;;5.38;;
45318;SDS011;31057;48.498;32.260;2023-05-10T05:05:13;13.38;;;5.15;;
45318;SDS011;31057;48.498;32.260;2023-05-10T05:09:17;13.40;;;5.90;;
45318;SDS011;31057;48.498;32.260;2023-05-10T05:11:19;11.75;;;5.35;;
45318;SDS011;31057;48.498;32.260;2023-05-10T05:13:22;16.42;;;5.50;;
45318;SDS011;31057;48.498;32.260;2023-05-10T05:17:26;8.60;;;4.82;;
45318;SDS011;31057;48.498;32.260;2023-05-10T05:19:28;10.15;;;4.93;;
45318;SDS011;31057;48.498;32.260;2023-05-10T05:21:32;10.65;;;4.78;;
45318;SDS011;31057;48.498;32.260;2023-05-10T05:23:34;8.27;;;4.25;;
45318;SDS011;31057;48.498;32.260;2023-05-10T05:25:36;10.65;;;5.07;;
45318;SDS011;31057;48.498;32.260;2023-05-10T05:27:38;7.40;;;3.95;;
45318;SDS011;31057;48.498;32.260;2023-05-10T05:29:40;7.25;;;4.05;;
45318;SDS011;31057;48.498;32.260;2023-05-10T05:31:42;11.00;;;4.43;;
45318;SDS011;31057;48.498;32.260;2023-05-10T05:33:44;7.43;;;4.30;;
45318;SDS011;31057;48.498;32.260;2023-05-10T05:35:46;8.13;;;4.43;;
45318;SDS011;31057;48.498;32.260;2023-05-10T05:37:51;7.95;;;4.43;;
45318;SDS011;31057;48.498;32.260;2023-05-10T05:39:55;10.13;;;4.25;;
45318;SDS011;31057;48.498;32.260;2023-05-10T05:41:57;11.98;;;4.32;;
45318;SDS011;31057;48.498;32.260;2023-05-10T05:43:59;6.80;;;4.38;;
45318;SDS011;31057;48.498;32.260;2023-05-10T05:46:01;8.60;;;4.15;;
45318;SDS011;31057;48.498;32.260;2023-05-10T05:48:03;13.77;;;4.43;;
45318;SDS011;31057;48.498;32.260;2023-05-10T05:50:05;10.50;;;3.90;;
45318;SDS011;31057;48.498;32.260;2023-05-10T05:52:08;9.32;;;4.70;;
45318;SDS011;31057;48.498;32.260;2023-05-10T05:54:10;8.38;;;4.47;;
45318;SDS011;31057;48.498;32.260;2023-05-10T05:56:11;6.43;;;4.30;;
45318;SDS011;31057;48.498;32.260;2023-05-10T05:58:13;4.30;;;3.22;;
45318;SDS011;31057;48.498;32.260;2023-05-10T06:00:15;8.32;;;4.50;;
45318;SDS011;31057;48.498;32.260;2023-05-10T06:02:18;10.00;;;4.35;;
45318;SDS011;31057;48.498;32.260;2023-05-10T06:04:20;13.32;;;4.03;;
45318;SDS011;31057;48.498;32.260;2023-05-10T06:08:24;10.03;;;4.20;;
45318;SDS011;31057;48.498;32.260;2023-05-10T06:10:26;8.10;;;4.18;;
45318;SDS011;31057;48.498;32.260;2023-05-10T06:12:28;7.07;;;4.03;;
45318;SDS011;31057;48.498;32.260;2023-05-10T06:14:30;11.57;;;3.85;;
45318;SDS011;31057;48.498;32.260;2023-05-10T06:16:32;8.93;;;4.15;;
45318;SDS011;31057;48.498;32.260;2023-05-10T06:18:35;5.25;;;3.67;;
45318;SDS011;31057;48.498;32.260;2023-05-10T06:20:37;8.95;;;3.80;;
45318;SDS011;31057;48.498;32.260;2023-05-10T06:22:39;5.30;;;3.45;;
45318;SDS011;31057;48.498;32.260;2023-05-10T06:24:41;7.47;;;3.70;;
45318;SDS011;31057;48.498;32.260;2023-05-10T06:26:43;7.63;;;3.67;;
45318;SDS011;31057;48.498;32.260;2023-05-10T06:28:44;6.07;;;3.95;;
45318;SDS011;31057;48.498;32.260;2023-05-10T06:30:46;7.22;;;3.50;;
45318;SDS011;31057;48.498;32.260;2023-05-10T06:32:49;6.90;;;3.78;;
45318;SDS011;31057;48.498;32.260;2023-05-10T06:34:50;5.25;;;3.60;;
45318;SDS011;31057;48.498;32.260;2023-05-10T06:36:53;5.03;;;3.42;;
45318;SDS011;31057;48.498;32.260;2023-05-10T06:38:55;8.63;;;3.75;;
45318;SDS011;31057;48.498;32.260;2023-05-10T06:40:57;6.22;;;3.75;;
45318;SDS011;31057;48.498;32.260;2023-05-10T06:42:58;6.13;;;3.50;;
45318;SDS011;31057;48.498;32.260;2023-05-10T06:45:00;18.48;;;4.72;;
45318;SDS011;31057;48.498;32.260;2023-05-10T06:47:02;5.63;;;3.47;;
45318;SDS011;31057;48.498;32.260;2023-05-10T06:49:05;7.05;;;3.13;;
45318;SDS011;31057;48.498;32.260;2023-05-10T06:51:06;7.35;;;4.10;;
45318;SDS011;31057;48.498;32.260;2023-05-10T06:53:08;6.22;;;3.63;;
45318;SDS011;31057;48.498;32.260;2023-05-10T06:55:10;5.43;;;3.60;;
45318;SDS011;31057;48.498;32.260;2023-05-10T06:59:31;6.35;;;3.60;;
45318;SDS011;31057;48.498;32.260;2023-05-10T07:01:33;10.32;;;3.50;;
45318;SDS011;31057;48.498;32.260;2023-05-10T07:03:35;5.03;;;3.38;;
45318;SDS011;31057;48.498;32.260;2023-05-10T07:05:37;8.63;;;3.83;;
45318;SDS011;31057;48.498;32.260;2023-05-10T07:07:39;10.18;;;4.35;;
45318;SDS011;31057;48.498;32.260;2023-05-10T07:11:43;7.85;;;3.40;;
45318;SDS011;31057;48.498;32.260;2023-05-10T07:13:45;6.35;;;3.15;;
45318;SDS011;31057;48.498;32.260;2023-05-10T07:15:47;6.30;;;3.55;;
45318;SDS011;31057;48.498;32.260;2023-05-10T07:19:53;8.35;;;3.50;;
45318;SDS011;31057;48.498;32.260;2023-05-10T07:21:55;6.65;;;3.45;;
45318;SDS011;31057;48.498;32.260;2023-05-10T07:25:59;9.13;;;3.33;;
45318;SDS011;31057;48.498;32.260;2023-05-10T07:28:01;5.93;;;3.30;;
45318;SDS011;31057;48.498;32.260;2023-05-10T07:30:03;7.15;;;3.42;;
45318;SDS011;31057;48.498;32.260;2023-05-10T07:32:05;4.50;;;3.17;;
45318;SDS011;31057;48.498;32.260;2023-05-10T07:34:07;10.25;;;4.10;;
45318;SDS011;31057;48.498;32.260;2023-05-10T07:36:09;6.43;;;3.17;;
45318;SDS011;31057;48.498;32.260;2023-05-10T07:38:11;4.32;;;3.35;;
45318;SDS011;31057;48.498;32.260;2023-05-10T07:40:13;4.35;;;3.63;;
45318;SDS011;31057;48.498;32.260;2023-05-10T07:42:15;8.38;;;3.42;;
45318;SDS011;31057;48.498;32.260;2023-05-10T07:44:17;6.45;;;3.17;;
45318;SDS011;31057;48.498;32.260;2023-05-10T07:46:22;11.75;;;3.25;;
45318;SDS011;31057;48.498;32.260;2023-05-10T07:50:26;4.13;;;3.17;;
45318;SDS011;31057;48.498;32.260;2023-05-10T07:52:28;10.02;;;4.05;;
45318;SDS011;31057;48.498;32.260;2023-05-10T07:56:35;5.93;;;3.33;;
45318;SDS011;31057;48.498;32.260;2023-05-10T07:58:40;5.38;;;2.80;;
45318;SDS011;31057;48.498;32.260;2023-05-10T08:00:41;4.30;;;2.65;;
45318;SDS011;31057;48.498;32.260;2023-05-10T08:02:43;3.33;;;2.33;;
45318;SDS011;31057;48.498;32.260;2023-05-10T08:06:47;4.33;;;3.00;;
45318;SDS011;31057;48.498;32.260;2023-05-10T08:08:49;7.15;;;3.35;;
45318;SDS011;31057;48.498;32.260;2023-05-10T08:10:51;5.15;;;2.90;;
45318;SDS011;31057;48.498;32.260;2023-05-10T08:12:53;3.05;;;2.53;;
45318;SDS011;31057;48.498;32.260;2023-05-10T08:14:55;8.00;;;3.35;;
45318;SDS011;31057;48.498;32.260;2023-05-10T08:16:58;4.53;;;3.20;;
45318;SDS011;31057;48.498;32.260;2023-05-10T08:19:00;5.90;;;3.40;;
45318;SDS011;31057;48.498;32.260;2023-05-10T08:21:02;4.50;;;3.20;;
45318;SDS011;31057;48.498;32.260;2023-05-10T08:23:04;5.07;;;3.00;;
45318;SDS011;31057;48.498;32.260;2023-05-10T08:25:06;3.97;;;2.72;;
45318;SDS011;31057;48.498;32.260;2023-05-10T08:27:08;6.28;;;2.92;;
45318;SDS011;31057;48.498;32.260;2023-05-10T08:29:10;4.57;;;2.90;;
45318;SDS011;31057;48.498;32.260;2023-05-10T08:31:12;3.38;;;2.80;;
45318;SDS011;31057;48.498;32.260;2023-05-10T08:35:16;9.18;;;3.10;;
45318;SDS011;31057;48.498;32.260;2023-05-10T08:37:18;3.10;;;2.80;;
45318;SDS011;31057;48.498;32.260;2023-05-10T08:39:20;7.65;;;3.20;;
45318;SDS011;31057;48.498;32.260;2023-05-10T08:41:30;6.13;;;2.53;;
45318;SDS011;31057;48.498;32.260;2023-05-10T08:43:35;5.10;;;2.72;;
45318;SDS011;31057;48.498;32.260;2023-05-10T08:45:38;11.05;;;3.75;;
45318;SDS011;31057;48.498;32.260;2023-05-10T08:47:42;9.40;;;3.00;;
45318;SDS011;31057;48.498;32.260;2023-05-10T08:49:45;4.70;;;2.10;;
45318;SDS011;31057;48.498;32.260;2023-05-10T08:51:53;4.55;;;2.90;;
45318;SDS011;31057;48.498;32.260;2023-05-10T08:53:57;4.68;;;2.90;;
45318;SDS011;31057;48.498;32.260;2023-05-10T08:58:02;3.55;;;2.75;;
45318;SDS011;31057;48.498;32.260;2023-05-10T09:00:05;6.55;;;2.35;;
45318;SDS011;31057;48.498;32.260;2023-05-10T09:02:08;4.10;;;2.60;;
45318;SDS011;31057;48.498;32.260;2023-05-10T09:04:12;3.58;;;2.55;;
45318;SDS011;31057;48.498;32.260;2023-05-10T09:08:17;5.65;;;3.40;;
45318;SDS011;31057;48.498;32.260;2023-05-10T09:10:20;6.97;;;3.50;;
45318;SDS011;31057;48.498;32.260;2023-05-10T09:12:22;4.85;;;3.28;;
45318;SDS011;31057;48.498;32.260;2023-05-10T09:16:26;3.63;;;2.78;;
45318;SDS011;31057;48.498;32.260;2023-05-10T09:18:28;6.35;;;3.15;;
45318;SDS011;31057;48.498;32.260;2023-05-10T09:20:31;8.15;;;3.45;;
45318;SDS011;31057;48.498;32.260;2023-05-10T09:22:33;7.53;;;3.15;;
45318;SDS011;31057;48.498;32.260;2023-05-10T09:24:36;13.80;;;3.85;;
45318;SDS011;31057;48.498;32.260;2023-05-10T09:26:46;8.23;;;3.55;;
45318;SDS011;31057;48.498;32.260;2023-05-10T09:30:55;7.03;;;3.78;;
45318;SDS011;31057;48.498;32.260;2023-05-10T09:32:58;7.03;;;3.42;;
45318;SDS011;31057;48.498;32.260;2023-05-10T09:35:05;8.55;;;3.90;;
45318;SDS011;31057;48.498;32.260;2023-05-10T09:37:11;6.22;;;3.08;;
45318;SDS011;31057;48.498;32.260;2023-05-10T09:39:13;3.40;;;2.70;;
45318;SDS011;31057;48.498;32.260;2023-05-10T09:41:19;3.08;;;2.40;;
45318;SDS011;31057;48.498;32.260;2023-05-10T09:43:24;3.83;;;2.45;;
45318;SDS011;31057;48.498;32.260;2023-05-10T09:45:30;3.38;;;2.30;;
45318;SDS011;31057;48.498;32.260;2023-05-10T09:47:33;5.88;;;2.38;;
45318;SDS011;31057;48.498;32.260;2023-05-10T09:49:36;4.43;;;2.65;;
45318;SDS011;31057;48.498;32.260;2023-05-10T09:51:38;10.10;;;2.67;;
45318;SDS011;31057;48.498;32.260;2023-05-10T09:53:40;6.10;;;2.85;;
45318;SDS011;31057;48.498;32.260;2023-05-10T09:55:42;9.40;;;3.58;;
45318;SDS011;31057;48.498;32.260;2023-05-10T09:57:46;5.95;;;3.05;;
45318;SDS011;31057;48.498;32.260;2023-05-10T09:59:49;6.85;;;2.95;;
45318;SDS011;31057;48.498;32.260;2023-05-10T10:01:52;3.65;;;2.47;;
45318;SDS011;31057;48.498;32.260;2023-05-10T10:03:58;5.13;;;2.75;;
45318;SDS011;31057;48.498;32.260;2023-05-10T10:06:00;5.13;;;3.00;;
45318;SDS011;31057;48.498;32.260;2023-05-10T10:08:03;7.38;;;2.63;;
45318;SDS011;31057;48.498;32.260;2023-05-10T10:10:06;2.95;;;2.65;;
45318;SDS011;31057;48.498;32.260;2023-05-10T10:12:12;6.05;;;2.65;;
45318;SDS011;31057;48.498;32.260;2023-05-10T10:16:17;3.10;;;2.58;;
45318;SDS011;31057;48.498;32.260;2023-05-10T10:20:28;9.38;;;2.45;;
45318;SDS011;31057;48.498;32.260;2023-05-10T10:22:30;5.07;;;2.70;;
45318;SDS011;31057;48.498;32.260;2023-05-10T10:24:32;7.22;;;2.58;;
45318;SDS011;31057;48.498;32.260;2023-05-10T10:26:34;3.40;;;2.40;;
45318;SDS011;31057;48.498;32.260;2023-05-10T10:29:04;4.50;;;2.42;;
45318;SDS011;31057;48.498;32.260;2023-05-10T10:31:15;3.78;;;2.63;;
45318;SDS011;31057;48.498;32.260;2023-05-10T10:33:39;5.18;;;2.58;;
45318;SDS011;31057;48.498;32.260;2023-05-10T10:36:11;4.93;;;2.97;;
45318;SDS011;31057;48.498;32.260;2023-05-10T10:38:14;3.65;;;2.55;;
45318;SDS011;31057;48.498;32.260;2023-05-10T10:40:26;5.07;;;2.72;;
45318;SDS011;31057;48.498;32.260;2023-05-10T10:42:44;4.03;;;2.67;;
45318;SDS011;31057;48.498;32.260;2023-05-10T10:44:47;7.55;;;3.10;;
45318;SDS011;31057;48.498;32.260;2023-05-10T10:49:09;6.75;;;2.78;;
45318;SDS011;31057;48.498;32.260;2023-05-10T10:51:11;5.38;;;2.50;;
45318;SDS011;31057;48.498;32.260;2023-05-10T10:53:14;4.72;;;2.50;;
45318;SDS011;31057;48.498;32.260;2023-05-10T10:55:17;6.35;;;2.90;;
45318;SDS011;31057;48.498;32.260;2023-05-10T10:57:21;3.90;;;2.78;;
45318;SDS011;31057;48.498;32.260;2023-05-10T11:01:32;4.47;;;3.00;;
45318;SDS011;31057;48.498;32.260;2023-05-10T11:03:38;3.17;;;2.35;;
45318;SDS011;31057;48.498;32.260;2023-05-10T11:05:46;9.73;;;2.60;;
45318;SDS011;31057;48.498;32.260;2023-05-10T11:07:59;4.68;;;2.78;;
45318;SDS011;31057;48.498;32.260;2023-05-10T11:10:04;3.75;;;2.55;;
45318;SDS011;31057;48.498;32.260;2023-05-10T11:12:08;4.00;;;2.38;;
45318;SDS011;31057;48.498;32.260;2023-05-10T11:14:10;3.53;;;2.22;;
45318;SDS011;31057;48.498;32.260;2023-05-10T11:18:23;4.78;;;2.42;;
45318;SDS011;31057;48.498;32.260;2023-05-10T11:20:33;6.38;;;2.92;;
45318;SDS011;31057;48.498;32.260;2023-05-10T11:22:49;3.70;;;2.63;;
45318;SDS011;31057;48.498;32.260;2023-05-10T11:24:56;6.68;;;2.85;;
45318;SDS011;31057;48.498;32.260;2023-05-10T11:26:59;6.45;;;2.80;;
45318;SDS011;31057;48.498;32.260;2023-05-10T11:29:02;5.03;;;2.90;;
45318;SDS011;31057;48.498;32.260;2023-05-10T11:31:06;4.43;;;2.63;;
45318;SDS011;31057;48.498;32.260;2023-05-10T11:33:08;6.18;;;2.70;;
45318;SDS011;31057;48.498;32.260;2023-05-10T11:35:11;6.45;;;2.88;;
45318;SDS011;31057;48.498;32.260;2023-05-10T11:37:13;3.95;;;2.53;;
45318;SDS011;31057;48.498;32.260;2023-05-10T11:41:18;4.63;;;3.08;;
45318;SDS011;31057;48.498;32.260;2023-05-10T11:43:23;3.05;;;2.28;;
45318;SDS011;31057;48.498;32.260;2023-05-10T11:45:32;6.15;;;2.25;;
45318;SDS011;31057;48.498;32.260;2023-05-10T11:47:35;3.13;;;2.53;;
45318;SDS011;31057;48.498;32.260;2023-05-10T11:49:38;6.60;;;3.10;;
45318;SDS011;31057;48.498;32.260;2023-05-10T11:51:40;5.28;;;3.03;;
45318;SDS011;31057;48.498;32.260;2023-05-10T11:53:44;5.72;;;3.03;;
45318;SDS011;31057;48.498;32.260;2023-05-10T11:55:46;6.03;;;3.40;;
45318;SDS011;31057;48.498;32.260;2023-05-10T11:57:59;6.82;;;3.60;;
45318;SDS011;31057;48.498;32.260;2023-05-10T12:00:02;10.38;;;4.10;;
45318;SDS011;31057;48.498;32.260;2023-05-10T12:02:04;7.43;;;2.50;;
45318;SDS011;31057;48.498;32.260;2023-05-10T12:06:09;3.42;;;2.25;;
45318;SDS011;31057;48.498;32.260;2023-05-10T12:08:14;4.18;;;2.40;;
45318;SDS011;31057;48.498;32.260;2023-05-10T12:10:17;4.18;;;2.05;;
45318;SDS011;31057;48.498;32.260;2023-05-10T12:12:27;5.35;;;2.35;;
45318;SDS011;31057;48.498;32.260;2023-05-10T12:14:43;3.63;;;2.05;;
45318;SDS011;31057;48.498;32.260;2023-05-10T12:16:49;4.30;;;2.63;;
45318;SDS011;31057;48.498;32.260;2023-05-10T12:18:53;4.40;;;2.10;;
45318;SDS011;31057;48.498;32.260;2023-05-10T12:21:02;8.73;;;3.10;;
45318;SDS011;31057;48.498;32.260;2023-05-10T12:23:04;4.40;;;2.17;;
45318;SDS011;31057;48.498;32.260;2023-05-10T12:25:07;3.78;;;2.00;;
45318;SDS011;31057;48.498;32.260;2023-05-10T12:27:10;10.82;;;2.65;;
45318;SDS011;31057;48.498;32.260;2023-05-10T12:29:17;2.53;;;1.88;;
45318;SDS011;31057;48.498;32.260;2023-05-10T12:31:20;4.93;;;2.70;;
45318;SDS011;31057;48.498;32.260;2023-05-10T12:33:22;3.17;;;2.10;;
45318;SDS011;31057;48.498;32.260;2023-05-10T12:35:24;3.33;;;2.08;;
45318;SDS011;31057;48.498;32.260;2023-05-10T12:39:41;2.40;;;1.83;;
45318;SDS011;31057;48.498;32.260;2023-05-10T12:41:45;5.18;;;2.30;;
45318;SDS011;31057;48.498;32.260;2023-05-10T12:43:46;5.07;;;1.90;;
45318;SDS011;31057;48.498;32.260;2023-05-10T12:45:49;2.80;;;2.00;;
45318;SDS011;31057;48.498;32.260;2023-05-10T12:49:53;2.67;;;2.03;;
45318;SDS011;31057;48.498;32.260;2023-05-10T12:51:55;5.13;;;2.50;;
45318;SDS011;31057;48.498;32.260;2023-05-10T12:53:57;2.92;;;1.70;;
45318;SDS011;31057;48.498;32.260;2023-05-10T12:55:58;3.60;;;2.00;;
45318;SDS011;31057;48.498;32.260;2023-05-10T13:00:02;5.33;;;2.67;;
45318;SDS011;31057;48.498;32.260;2023-05-10T13:02:23;4.70;;;1.92;;
45318;SDS011;31057;48.498;32.260;2023-05-10T13:06:27;3.38;;;2.20;;
45318;SDS011;31057;48.498;32.260;2023-05-10T13:10:34;3.75;;;2.00;;
45318;SDS011;31057;48.498;32.260;2023-05-10T13:14:38;5.35;;;2.20;;
45318;SDS011;31057;48.498;32.260;2023-05-10T13:16:41;6.35;;;1.98;;
45318;SDS011;31057;48.498;32.260;2023-05-10T13:20:45;3.17;;;1.80;;
45318;SDS011;31057;48.498;32.260;2023-05-10T13:22:47;2.30;;;1.90;;
45318;SDS011;31057;48.498;32.260;2023-05-10T13:24:52;2.83;;;1.90;;
45318;SDS011;31057;48.498;32.260;2023-05-10T13:26:54;2.90;;;1.90;;
45318;SDS011;31057;48.498;32.260;2023-05-10T13:28:56;3.35;;;1.65;;
45318;SDS011;31057;48.498;32.260;2023-05-10T13:30:58;2.95;;;2.10;;
45318;SDS011;31057;48.498;32.260;2023-05-10T13:33:01;4.20;;;2.00;;
45318;SDS011;31057;48.498;32.260;2023-05-10T13:35:03;6.07;;;2.47;;
45318;SDS011;31057;48.498;32.260;2023-05-10T13:37:05;3.33;;;1.88;;
45318;SDS011;31057;48.498;32.260;2023-05-10T13:39:07;5.03;;;2.20;;
45318;SDS011;31057;48.498;32.260;2023-05-10T13:43:11;6.40;;;2.20;;
45318;SDS011;31057;48.498;32.260;2023-05-10T13:45:13;9.13;;;2.25;;
45318;SDS011;31057;48.498;32.260;2023-05-10T13:47:16;3.08;;;1.83;;
45318;SDS011;31057;48.498;32.260;2023-05-10T13:49:18;4.70;;;2.10;;
45318;SDS011;31057;48.498;32.260;2023-05-10T13:51:20;7.88;;;2.10;;
45318;SDS011;31057;48.498;32.260;2023-05-10T13:53:22;7.28;;;2.20;;